createdAt,value
2022-10-16T07:37:16.704Z,15.20
2022-10-16T07:39:43.259Z,15.40
2022-10-16T07:42:09.867Z,15.40
2022-10-16T07:44:37.805Z,15.40
2022-10-16T07:47:04.379Z,15.60
2022-10-16T07:49:30.933Z,15.50
2022-10-16T07:51:57.477Z,15.60
2022-10-16T07:54:24.067Z,16.40
2022-10-16T07:56:50.648Z,15.60
2022-10-16T08:04:11.832Z,15.80
2022-10-16T08:09:05.977Z,16.00
2022-10-16T08:21:22.240Z,16.30
2022-10-16T08:23:52.987Z,16.30
2022-10-16T08:26:23.863Z,16.60
2022-10-16T08:28:51.002Z,16.50
2022-10-16T08:33:46.332Z,16.60
2022-10-16T08:36:12.901Z,16.40
2022-10-16T08:41:15.811Z,16.80
2022-10-16T08:44:09.746Z,16.70
2022-10-16T08:46:44.791Z,16.50
2022-10-16T08:49:15.108Z,16.60
2022-10-16T08:51:44.284Z,16.40
2022-10-16T09:09:12.611Z,16.80
2022-10-16T09:50:58.530Z,17.30
2022-10-16T09:53:26.677Z,17.70
2022-10-16T09:55:54.307Z,17.50
2022-10-16T09:58:26.944Z,17.40
2022-10-16T10:00:55.016Z,17.50
2022-10-16T10:03:33.005Z,18.00
2022-10-16T10:06:02.076Z,17.10
2022-10-16T10:08:29.001Z,17.20
2022-10-16T10:10:56.024Z,17.10
2022-10-16T10:13:23.420Z,17.00
2022-10-16T10:15:50.060Z,17.20
2022-10-16T10:18:22.639Z,17.20
2022-10-16T10:21:02.408Z,18.20
2022-10-16T10:23:30.883Z,17.30
2022-10-16T10:26:03.609Z,17.30
2022-10-16T10:28:42.911Z,17.90
2022-10-16T10:31:16.729Z,17.50
2022-10-16T10:34:02.311Z,17.50
2022-10-16T10:36:31.322Z,17.40
2022-10-16T10:39:16.617Z,17.40
2022-10-16T10:42:02.138Z,17.50
2022-10-16T10:44:52.083Z,17.80
2022-10-16T10:47:21.715Z,17.80
2022-10-16T10:50:07.400Z,18.30
2022-10-16T10:52:44.188Z,18.30
2022-10-16T11:26:00.511Z,18.60
2022-10-16T11:29:20.544Z,18.50
2022-10-16T11:32:19.899Z,18.20
2022-10-16T11:34:50.284Z,18.30
2022-10-16T11:37:22.935Z,17.90
2022-10-16T11:39:51.239Z,18.00
2022-10-16T11:42:20.240Z,18.10
2022-10-16T11:44:46.921Z,18.60
2022-10-16T11:47:53.917Z,17.40
2022-10-16T11:50:05.730Z,17.70
2022-10-16T11:52:49.415Z,18.10
2022-10-16T11:55:19.038Z,18.80
2022-10-16T11:57:48.555Z,18.80
2022-10-16T12:00:21.640Z,19.20
2022-10-16T12:02:51.321Z,19.30
2022-10-16T12:05:24.272Z,19.10
2022-10-16T12:08:00.068Z,19.10
2022-10-16T12:10:28.238Z,19.40
2022-10-16T12:12:55.265Z,19.50
2022-10-16T12:15:54.264Z,19.20
2022-10-16T12:18:22.840Z,19.30
2022-10-16T12:20:59.867Z,19.60
2022-10-16T12:23:26.751Z,20.20
2022-10-16T12:30:58.530Z,20.10
2022-10-16T12:33:27.002Z,20.10
2022-10-16T12:35:54.268Z,19.90
2022-10-16T12:38:22.808Z,19.90
2022-10-16T12:41:03.466Z,20.30
2022-10-16T12:43:33.101Z,23.80
2022-10-16T12:48:32.696Z,20.80
2022-10-16T12:53:36.263Z,22.80
2022-10-16T12:58:45.453Z,24.70
2022-10-16T13:01:24.362Z,25.10
2022-10-16T13:03:57.065Z,25.10
2022-10-16T13:06:29.771Z,25.50
2022-10-16T13:09:15.267Z,25.20
2022-10-16T13:11:51.378Z,26.00
2022-10-16T13:14:27.720Z,25.70
2022-10-16T13:19:24.448Z,27.20
2022-10-16T13:22:06.225Z,27.20
2022-10-16T13:24:51.305Z,26.30
2022-10-16T13:27:17.868Z,27.30
2022-10-16T13:32:15.540Z,27.60
2022-10-16T13:34:46.450Z,28.10
2022-10-16T13:37:20.632Z,27.70
2022-10-16T13:39:47.993Z,27.60
2022-10-16T13:42:16.481Z,27.80
2022-10-16T13:44:48.323Z,28.30
2022-10-16T13:47:23.091Z,28.40
2022-10-16T13:50:08.709Z,28.80
2022-10-16T13:59:56.567Z,29.10
2022-10-16T14:02:35.918Z,29.30
2022-10-16T14:05:03.727Z,28.70
2022-10-16T14:07:32.534Z,29.10
2022-10-16T14:10:22.444Z,29.00
2022-10-16T14:13:15.385Z,29.00
2022-10-16T14:15:47.266Z,29.70
2022-10-16T14:18:22.449Z,29.20
2022-10-16T14:20:49.940Z,29.20
2022-10-16T14:26:21.906Z,31.30
2022-10-16T14:28:49.665Z,28.90
2022-10-16T14:31:24.551Z,28.10
2022-10-16T14:38:56.889Z,23.60
2022-10-16T14:41:27.061Z,23.20
2022-10-16T14:43:58.007Z,23.10
2022-10-16T14:46:30.776Z,22.30
2022-10-16T14:49:01.323Z,22.70
2022-10-16T14:53:59.188Z,21.60
2022-10-16T14:56:30.716Z,22.00
2022-10-16T14:58:58.966Z,21.80
2022-10-16T15:01:25.661Z,22.20
2022-10-16T15:03:53.621Z,22.30
2022-10-16T15:06:20.353Z,21.00
2022-10-16T15:08:46.973Z,21.80
2022-10-16T15:11:14.651Z,21.00
2022-10-16T15:13:41.294Z,21.30
2022-10-16T15:16:11.627Z,21.10
2022-10-16T15:18:38.297Z,21.50
2022-10-16T15:21:05.139Z,22.10
2022-10-16T15:23:31.775Z,20.70
2022-10-16T15:25:58.520Z,21.70
2022-10-16T15:28:25.630Z,21.10
2022-10-16T15:30:53.896Z,21.60
2022-10-16T15:33:21.951Z,21.50
2022-10-16T15:35:49.179Z,21.50
2022-10-16T15:38:16.357Z,20.80
2022-10-16T15:40:43.012Z,21.50
2022-10-16T15:43:10.068Z,20.00
2022-10-16T15:50:31.968Z,19.70
2022-10-16T15:52:58.923Z,20.00
2022-10-16T16:12:38.067Z,19.20
2022-10-16T16:15:05.900Z,19.90
2022-10-16T16:22:27.369Z,18.90
2022-10-16T16:29:48.671Z,18.80
2022-10-16T16:32:15.330Z,19.10
2022-10-16T16:34:42.015Z,18.90
2022-10-16T16:37:08.971Z,19.50
2022-10-16T16:39:35.646Z,19.10
2022-10-16T16:42:03.974Z,18.80
2022-10-16T16:44:30.776Z,19.40
2022-10-16T16:51:51.487Z,18.20
2022-10-16T16:54:18.119Z,18.70
2022-10-16T16:56:45.293Z,18.30
2022-10-16T16:59:16.153Z,18.30
2022-10-16T17:01:42.931Z,18.30
2022-10-16T17:04:09.654Z,18.30
2022-10-16T17:06:36.276Z,18.20
2022-10-16T17:09:04.144Z,18.70
2022-10-16T17:11:31.093Z,18.80
2022-10-16T17:13:58.704Z,18.80
2022-10-16T17:16:27.075Z,18.60
2022-10-16T17:18:54.170Z,18.80
2022-10-16T17:21:20.814Z,18.10
2022-10-16T17:23:47.452Z,18.00
2022-10-16T17:26:15.905Z,18.50
2022-10-16T17:28:43.074Z,18.30
2022-10-16T17:31:14.252Z,18.50
2022-10-16T17:33:41.180Z,17.80
2022-10-16T17:36:08.538Z,17.80
2022-10-16T17:38:35.447Z,17.80
2022-10-16T17:41:31.726Z,18.10
2022-10-16T17:43:58.368Z,17.80
2022-10-16T17:46:25.704Z,18.20
2022-10-16T17:48:54.452Z,18.10
2022-10-16T17:51:25.656Z,17.70
2022-10-16T17:53:53.522Z,17.60
2022-10-16T17:56:20.236Z,18.00
2022-10-16T17:58:51.779Z,17.60
2022-10-16T18:01:26.471Z,17.40
2022-10-16T18:03:54.877Z,17.30
2022-10-16T18:06:23.036Z,17.60
2022-10-16T18:08:50.748Z,17.10
2022-10-16T18:11:17.372Z,17.00
2022-10-16T18:13:44.604Z,17.00
2022-10-16T18:16:12.236Z,17.50
2022-10-16T18:18:39.244Z,17.20
2022-10-16T18:23:33.979Z,16.70
2022-10-16T18:28:28.518Z,16.50
2022-10-16T18:30:59.390Z,16.30
2022-10-16T18:33:26.349Z,16.20
2022-10-16T18:35:53.233Z,15.20
2022-10-16T18:38:20.211Z,15.30
2022-10-16T18:40:46.859Z,15.90
2022-10-16T18:43:13.467Z,16.20
2022-10-16T18:45:40.093Z,15.90
2022-10-16T18:48:06.878Z,15.70
2022-10-16T18:50:33.460Z,15.70
2022-10-16T18:53:00.059Z,16.90
2022-10-16T18:55:30.857Z,15.50
2022-10-16T18:57:57.758Z,15.60
2022-10-16T19:05:18.350Z,15.50
2022-10-16T19:07:45.847Z,15.50
2022-10-16T19:10:12.442Z,16.70
2022-10-16T19:12:38.991Z,15.00
2022-10-16T19:15:05.793Z,14.80
2022-10-16T19:19:59.307Z,15.10
2022-10-16T19:22:40.868Z,15.10
2022-10-16T19:25:07.905Z,15.10
2022-10-16T19:27:34.515Z,15.10
2022-10-16T19:30:01.236Z,15.40
2022-10-16T19:32:28.037Z,15.10
2022-10-16T19:34:56.850Z,15.70
2022-10-16T19:37:25.854Z,15.00
2022-10-16T19:39:52.468Z,15.00
2022-10-16T19:44:45.966Z,14.80
2022-10-16T19:47:12.498Z,14.80
2022-10-16T19:49:39.098Z,14.70
2022-10-16T19:54:33.502Z,14.50
2022-10-16T19:59:28.297Z,14.40
2022-10-16T20:01:54.970Z,14.30
2022-10-16T20:04:21.538Z,14.30
2022-10-16T20:06:48.279Z,14.20
2022-10-16T20:09:14.948Z,14.20
2022-10-16T20:11:41.623Z,14.30
2022-10-16T20:14:08.435Z,14.30
2022-10-16T20:16:35.051Z,14.30
2022-10-16T20:19:01.810Z,14.40
2022-10-16T20:21:29.871Z,14.20
2022-10-16T20:23:56.969Z,14.10
2022-10-16T20:26:25.790Z,14.00
2022-10-16T20:28:53.019Z,14.10
2022-10-16T20:31:24.330Z,14.10
2022-10-16T20:36:18.427Z,14.00
2022-10-16T20:38:45.335Z,13.90
2022-10-16T20:41:13.325Z,13.80
2022-10-16T20:46:14.722Z,13.70
2022-10-16T20:48:44.194Z,13.60
2022-10-16T20:51:11.961Z,13.60
2022-10-16T20:53:39.556Z,13.60
2022-10-16T20:56:06.259Z,13.60
2022-10-16T20:58:32.883Z,13.60
2022-10-16T21:01:06.802Z,13.60
2022-10-16T21:03:33.563Z,13.60
2022-10-16T21:06:01.807Z,13.50
2022-10-16T21:08:28.445Z,13.50
2022-10-16T21:13:21.957Z,13.30
2022-10-16T21:15:48.505Z,13.40
2022-10-16T21:20:44.548Z,13.10
2022-10-16T21:25:38.066Z,13.00
2022-10-16T21:28:04.697Z,13.00
2022-10-16T21:30:31.291Z,13.10
2022-10-16T21:32:57.848Z,13.10
2022-10-16T21:35:25.169Z,13.10
2022-10-16T21:37:51.729Z,13.20
2022-10-16T21:40:18.275Z,13.10
2022-10-16T21:42:44.855Z,13.20
2022-10-16T21:45:11.436Z,13.10
2022-10-16T21:47:38.003Z,13.10
2022-10-16T21:50:04.745Z,13.10
2022-10-16T21:52:31.388Z,13.10
2022-10-16T21:54:57.935Z,13.10
2022-10-16T21:57:24.710Z,13.00
2022-10-16T21:59:51.578Z,13.00
2022-10-16T22:02:18.116Z,13.00
2022-10-16T22:04:44.660Z,13.00
2022-10-16T22:07:11.234Z,13.00
2022-10-16T22:09:37.792Z,13.00
2022-10-16T22:12:04.405Z,13.00
2022-10-16T22:14:30.958Z,12.90
2022-10-16T22:19:24.599Z,12.80
2022-10-16T22:21:55.963Z,12.70
2022-10-16T22:24:23.475Z,12.70
2022-10-16T22:26:50.158Z,12.50
2022-10-16T22:29:18.039Z,12.60
2022-10-16T22:31:44.865Z,12.50
2022-10-16T22:34:12.873Z,12.50
2022-10-16T22:36:39.456Z,12.50
2022-10-16T22:39:06.133Z,12.60
2022-10-16T22:41:32.736Z,12.30
2022-10-16T22:43:59.299Z,12.40
2022-10-16T22:46:27.602Z,12.00
2022-10-16T22:51:22.891Z,12.40
2022-10-16T22:53:49.953Z,12.50
2022-10-16T23:29:18.447Z,11.90
2022-10-16T23:32:17.678Z,11.90
2022-10-16T23:34:44.369Z,11.70
2022-10-16T23:39:38.020Z,11.90
